Terminal Aerodrome Forecast
Issued by NWS Topeka, KS

Home | Current Version | Previous Version | Text Only | Print | Product List | Glossary On
Versions: 1 2 3 4 5 6 7 8 9 10 11 12 13 14 15
391
FTUS43 KTOP 160520
TAFTOP
TAF
KTOP 160520Z 1606/1706 22008KT P6SM SKC WS015/23045KT
     FM161300 20011KT P6SM SKC
     FM170000 17007KT P6SM SCT250=

USA.gov is the U.S. government's official web portal to all federal, state and local government web resources and services.